KMEV Airport (Minden-Tahoe) Information

FAA: MEV - ICAO: KMEV

KMEV Airport Location

State Nevada
County Douglas
City Minden
KMEV Airport is 4 miles north of Minden, NV.
Latitude 39-00-01.8000N
Longitude 119-45-04.0000W
Elevation 4,723ft

KMEV Airport METARs

METAR KMEV 060835Z AUTO 00000KT 10SM CLR M04/M08 A3030 RMK AO2
Altimeter 30.30"
Temperature -4.0°C (24.8°F)
Wind 0° at 0KT
Clouds Skies are clear.
Visibility 10.0mi
Time observed: 2021-12-06T08:35:00Z

KMEV Airport Details

Status Operational
Activation December 1942
Ownership Public
Usage Public
Chart SAN FRANCISCO
ATC on-site No
Beacon schedule sunset-sunrise
Beacon color clear green

KMEV Airport Contacts

Owner DOUGLAS COUNTY
Owner address P O BOX 218, MINDEN, NV 89423
Owner phone 775-782-9871
Manager ROSEMARY A. VASSILIADIS
Manager address 5757 WAYNE NEWTON BLVD, LAS VEGAS, NV 89119
Manager phone (702) 261-4525

KMEV Airport (Minden-Tahoe) Radio Frequencies

KMEV (Airport) Radio Frequencies

UNICOM 123.05
Common traffic advisory frequency (CTAF) 123.05